Hustler II — CZ3052 — position and weather

sailwx.info

Track history (hours):
 
Tides and Currents Weather Stations Pressure Air Temp Water Temp Dewpoint Dewpoint Depression Visibility Wind Speed Wind Dir Waves Ship Positions

Hustler II

Last reported at 2017-Dec-07 21:17 UTC. Time now 2017-Dec-11 17:15 UTC.
Position N 48°58' W 123°43'.

Length 15 m; draft 3.6 m.

Type: Towing. MMSI: 316005607.

Date/timePositionNaut miles runAvg speedWind from/ knotsBaromVisibWave heightAir tempDewpointWater temp
2017-Dec-07 21:17N 48°58' W 123°43'3 1.2
2017-Dec-07 18:55N 48°55' W 123°43'3 2.5
2017-Dec-07 17:40N 48°58' W 123°45'1 3.0
2017-Dec-07 17:26N 48°58' W 123°46'2 2.9
2017-Dec-07 16:51N 48°60' W 123°48'0 0.7
2017-Dec-07 16:24N 48°60' W 123°48'1 1.4
2017-Dec-07 15:45N 49°00' W 123°49'0 0.5
2017-Dec-07 15:29N 49°01' W 123°49'1 1.1
2017-Dec-07 14:54N 49°00' W 123°49'1 2.0
2017-Dec-07 14:30N 48°59' W 123°48'1 1.8
2017-Dec-07 13:59N 48°59' W 123°47'1 1.9
2017-Dec-07 13:30N 48°58' W 123°46'1 1.7
2017-Dec-07 13:00N 48°59' W 123°44'1 0.2
2017-Dec-07 03:59N 48°58' W 123°43'  
2017-Dec-04 10:23N 49°01' W 123°44'1 0.0
2017-Dec-03 15:09N 49°00' W 123°44'1 8.8
2017-Dec-03 15:00N 48°59' W 123°43'3 6.7
2017-Dec-03 14:30N 48°56' W 123°43'0 0.0
2017-Dec-01 23:05N 48°56' W 123°43'0 0.0
2017-Dec-01 22:57N 48°56' W 123°43'0 0.0
2017-Dec-01 22:30N 48°56' W 123°43'0 0.0
2017-Dec-01 22:00N 48°56' W 123°43'0 0.0
2017-Dec-01 21:30N 48°56' W 123°43'0 0.0
2017-Dec-01 21:00N 48°56' W 123°43'0 0.0
2017-Dec-01 20:29N 48°56' W 123°43'0 0.0
2017-Dec-01 19:59N 48°56' W 123°43'0 0.0
2017-Dec-01 19:30N 48°56' W 123°43'0 0.0
2017-Dec-01 18:57N 48°56' W 123°43'0 0.0
2017-Dec-01 17:24N 48°56' W 123°43'0 0.0
2017-Dec-01 17:00N 48°56' W 123°43'0 0.0
2017-Dec-01 16:13N 48°56' W 123°43'0 0.0
2017-Dec-01 16:00N 48°56' W 123°43'0 0.0
2017-Dec-01 15:04N 48°56' W 123°43'0 0.0
2017-Dec-01 14:53N 48°56' W 123°43'0 0.0
2017-Dec-01 14:28N 48°56' W 123°43'0 0.0
2017-Dec-01 14:00N 48°56' W 123°43'0 0.0
2017-Dec-01 13:30N 48°56' W 123°43'0 0.0
2017-Dec-01 12:59N 48°56' W 123°43'0 0.0
2017-Dec-01 12:29N 48°56' W 123°43'0 0.0
2017-Dec-01 12:00N 48°56' W 123°43'0 0.0
2017-Dec-01 11:30N 48°56' W 123°43'0 0.0
2017-Dec-01 10:59N 48°56' W 123°43'0 0.0
2017-Dec-01 10:30N 48°56' W 123°43'0 0.0
2017-Dec-01 10:00N 48°56' W 123°43'0 0.0
2017-Dec-01 09:25N 48°56' W 123°43'0 0.0
2017-Dec-01 08:58N 48°56' W 123°43'0 0.0
2017-Dec-01 08:21N 48°56' W 123°43'0 0.0
2017-Nov-30 23:43N 48°56' W 123°43'0 0.0
2017-Nov-30 23:30N 48°56' W 123°43'0 0.0
2017-Nov-30 23:00N 48°56' W 123°43'0 0.0
2017-Nov-30 22:27N 48°56' W 123°43'0 0.0
2017-Nov-30 21:59N 48°56' W 123°43'0 0.0
2017-Nov-30 21:30N 48°56' W 123°43'0 0.0
2017-Nov-30 21:00N 48°56' W 123°43'0 0.0
2017-Nov-30 20:30N 48°56' W 123°43'0 0.0
2017-Nov-30 20:00N 48°56' W 123°43'0 0.0
2017-Nov-30 19:25N 48°56' W 123°43'0 0.0
2017-Nov-30 18:58N 48°56' W 123°43'0 0.0
2017-Nov-30 18:28N 48°56' W 123°43'0 0.0
2017-Nov-30 17:41N 48°56' W 123°43'0 0.0
2017-Nov-30 17:25N 48°56' W 123°43'0 0.0
2017-Nov-30 16:03N 48°56' W 123°43'0 0.0
2017-Nov-30 15:51N 48°56' W 123°43'0 0.0
2017-Nov-30 15:30N 48°56' W 123°43'0 0.0
2017-Nov-30 14:43N 48°56' W 123°43'0 0.0
2017-Nov-30 14:28N 48°56' W 123°43'0 0.0
2017-Nov-30 13:59N 48°56' W 123°43'0 0.0
2017-Nov-30 13:14N 48°56' W 123°43'0 0.0
2017-Nov-30 12:56N 48°56' W 123°43'0 0.0
2017-Nov-30 12:29N 48°56' W 123°43'0 0.0
2017-Nov-30 12:00N 48°56' W 123°43'0 0.0
2017-Nov-30 11:30N 48°56' W 123°43'0 0.0
2017-Nov-30 11:00N 48°56' W 123°43'0 0.0
2017-Nov-30 10:30N 48°56' W 123°43'0 0.0
2017-Nov-30 10:00N 48°56' W 123°43'0 0.0
2017-Nov-30 09:30N 48°56' W 123°43'0 0.0
2017-Nov-30 09:00N 48°56' W 123°43'0 0.0
2017-Nov-30 08:30N 48°56' W 123°43'0 0.0
2017-Nov-30 07:57N 48°56' W 123°43'0 0.0
2017-Nov-30 07:26N 48°56' W 123°43'0 0.0
2017-Nov-30 06:57N 48°56' W 123°43'0 0.0
2017-Nov-30 06:24N 48°56' W 123°43'0 0.0
2017-Nov-30 01:25N 48°56' W 123°43'0 0.0
2017-Nov-30 00:58N 48°56' W 123°43'0 0.0
2017-Nov-30 00:29N 48°56' W 123°43'0 0.0
2017-Nov-29 23:59N 48°56' W 123°43'0 0.0
2017-Nov-29 23:29N 48°56' W 123°43'0 0.0
2017-Nov-29 22:59N 48°56' W 123°43'0 0.0
2017-Nov-29 22:29N 48°56' W 123°43'0 0.0
2017-Nov-29 22:00N 48°56' W 123°43'0 0.0
2017-Nov-29 21:30N 48°56' W 123°43'0 0.0
2017-Nov-29 20:59N 48°56' W 123°43'0 0.0
2017-Nov-29 20:29N 48°56' W 123°43'0 0.0
2017-Nov-29 20:00N 48°56' W 123°43'2 0.1
2017-Nov-28 15:00N 48°55' W 123°40'3 3.1
2017-Nov-28 13:55N 48°52' W 123°38'0 1.0
2017-Nov-28 13:30N 48°52' W 123°38'1 2.0
2017-Nov-28 13:00N 48°53' W 123°37'3 5.5
2017-Nov-28 12:30N 48°55' W 123°40'2 0.2
2017-Nov-28 02:07N 48°56' W 123°43'1 6.5
2017-Nov-28 02:00N 48°56' W 123°42'13 8.0
2017-Nov-28 00:26N 49°06' W 123°30'4 9.7
2017-Nov-27 23:59N 49°10' W 123°26'5 9.8
2017-Nov-27 23:29N 49°13' W 123°21'4 8.4
2017-Nov-27 23:00N 49°15' W 123°16'0 0.4
2017-Nov-27 22:29N 49°15' W 123°16'1 1.3
2017-Nov-27 22:00N 49°15' W 123°16'1 1.1
2017-Nov-27 21:30N 49°16' W 123°17'  
Track history (hours):
 
Tides and Currents Weather Stations Pressure Air Temp Water Temp Dewpoint Dewpoint Depression Visibility Wind Speed Wind Dir Waves Ship Positions

Hustler II

Last reported at 2017-Dec-07 21:17 UTC. Time now 2017-Dec-11 17:15 UTC.
Position N 48°58' W 123°43'.

Length 15 m; draft 3.6 m.

Type: Towing. MMSI: 316005607.

Date/timePositionNaut miles runAvg speedWind from/ knotsBaromVisibWave heightAir tempDewpointWater temp
2017-Dec-07 21:17N 48°58' W 123°43'3 1.2
2017-Dec-07 18:55N 48°55' W 123°43'3 2.5
2017-Dec-07 17:40N 48°58' W 123°45'1 3.0
2017-Dec-07 17:26N 48°58' W 123°46'2 2.9
2017-Dec-07 16:51N 48°60' W 123°48'0 0.7
2017-Dec-07 16:24N 48°60' W 123°48'1 1.4
2017-Dec-07 15:45N 49°00' W 123°49'0 0.5
2017-Dec-07 15:29N 49°01' W 123°49'1 1.1
2017-Dec-07 14:54N 49°00' W 123°49'1 2.0
2017-Dec-07 14:30N 48°59' W 123°48'1 1.8
2017-Dec-07 13:59N 48°59' W 123°47'1 1.9
2017-Dec-07 13:30N 48°58' W 123°46'1 1.7
2017-Dec-07 13:00N 48°59' W 123°44'1 0.2
2017-Dec-07 03:59N 48°58' W 123°43'  
2017-Dec-04 10:23N 49°01' W 123°44'1 0.0
2017-Dec-03 15:09N 49°00' W 123°44'1 8.8
2017-Dec-03 15:00N 48°59' W 123°43'3 6.7
2017-Dec-03 14:30N 48°56' W 123°43'0 0.0
2017-Dec-01 23:05N 48°56' W 123°43'0 0.0
2017-Dec-01 22:57N 48°56' W 123°43'0 0.0
2017-Dec-01 22:30N 48°56' W 123°43'0 0.0
2017-Dec-01 22:00N 48°56' W 123°43'0 0.0
2017-Dec-01 21:30N 48°56' W 123°43'0 0.0
2017-Dec-01 21:00N 48°56' W 123°43'0 0.0
2017-Dec-01 20:29N 48°56' W 123°43'0 0.0
2017-Dec-01 19:59N 48°56' W 123°43'0 0.0
2017-Dec-01 19:30N 48°56' W 123°43'0 0.0
2017-Dec-01 18:57N 48°56' W 123°43'0 0.0
2017-Dec-01 17:24N 48°56' W 123°43'0 0.0
2017-Dec-01 17:00N 48°56' W 123°43'0 0.0
2017-Dec-01 16:13N 48°56' W 123°43'0 0.0
2017-Dec-01 16:00N 48°56' W 123°43'0 0.0
2017-Dec-01 15:04N 48°56' W 123°43'0 0.0
2017-Dec-01 14:53N 48°56' W 123°43'0 0.0
2017-Dec-01 14:28N 48°56' W 123°43'0 0.0
2017-Dec-01 14:00N 48°56' W 123°43'0 0.0
2017-Dec-01 13:30N 48°56' W 123°43'0 0.0
2017-Dec-01 12:59N 48°56' W 123°43'0 0.0
2017-Dec-01 12:29N 48°56' W 123°43'0 0.0
2017-Dec-01 12:00N 48°56' W 123°43'0 0.0
2017-Dec-01 11:30N 48°56' W 123°43'0 0.0
2017-Dec-01 10:59N 48°56' W 123°43'0 0.0
2017-Dec-01 10:30N 48°56' W 123°43'0 0.0
2017-Dec-01 10:00N 48°56' W 123°43'0 0.0
2017-Dec-01 09:25N 48°56' W 123°43'0 0.0
2017-Dec-01 08:58N 48°56' W 123°43'0 0.0
2017-Dec-01 08:21N 48°56' W 123°43'0 0.0
2017-Nov-30 23:43N 48°56' W 123°43'0 0.0
2017-Nov-30 23:30N 48°56' W 123°43'0 0.0
2017-Nov-30 23:00N 48°56' W 123°43'0 0.0
2017-Nov-30 22:27N 48°56' W 123°43'0 0.0
2017-Nov-30 21:59N 48°56' W 123°43'0 0.0
2017-Nov-30 21:30N 48°56' W 123°43'0 0.0
2017-Nov-30 21:00N 48°56' W 123°43'0 0.0
2017-Nov-30 20:30N 48°56' W 123°43'0 0.0
2017-Nov-30 20:00N 48°56' W 123°43'0 0.0
2017-Nov-30 19:25N 48°56' W 123°43'0 0.0
2017-Nov-30 18:58N 48°56' W 123°43'0 0.0
2017-Nov-30 18:28N 48°56' W 123°43'0 0.0
2017-Nov-30 17:41N 48°56' W 123°43'0 0.0
2017-Nov-30 17:25N 48°56' W 123°43'0 0.0
2017-Nov-30 16:03N 48°56' W 123°43'0 0.0
2017-Nov-30 15:51N 48°56' W 123°43'0 0.0
2017-Nov-30 15:30N 48°56' W 123°43'0 0.0
2017-Nov-30 14:43N 48°56' W 123°43'0 0.0
2017-Nov-30 14:28N 48°56' W 123°43'0 0.0
2017-Nov-30 13:59N 48°56' W 123°43'0 0.0
2017-Nov-30 13:14N 48°56' W 123°43'0 0.0
2017-Nov-30 12:56N 48°56' W 123°43'0 0.0
2017-Nov-30 12:29N 48°56' W 123°43'0 0.0
2017-Nov-30 12:00N 48°56' W 123°43'0 0.0
2017-Nov-30 11:30N 48°56' W 123°43'0 0.0
2017-Nov-30 11:00N 48°56' W 123°43'0 0.0
2017-Nov-30 10:30N 48°56' W 123°43'0 0.0
2017-Nov-30 10:00N 48°56' W 123°43'0 0.0
2017-Nov-30 09:30N 48°56' W 123°43'0 0.0
2017-Nov-30 09:00N 48°56' W 123°43'0 0.0
2017-Nov-30 08:30N 48°56' W 123°43'0 0.0
2017-Nov-30 07:57N 48°56' W 123°43'0 0.0
2017-Nov-30 07:26N 48°56' W 123°43'0 0.0
2017-Nov-30 06:57N 48°56' W 123°43'0 0.0
2017-Nov-30 06:24N 48°56' W 123°43'0 0.0
2017-Nov-30 01:25N 48°56' W 123°43'0 0.0
2017-Nov-30 00:58N 48°56' W 123°43'0 0.0
2017-Nov-30 00:29N 48°56' W 123°43'0 0.0
2017-Nov-29 23:59N 48°56' W 123°43'0 0.0
2017-Nov-29 23:29N 48°56' W 123°43'0 0.0
2017-Nov-29 22:59N 48°56' W 123°43'0 0.0
2017-Nov-29 22:29N 48°56' W 123°43'0 0.0
2017-Nov-29 22:00N 48°56' W 123°43'0 0.0
2017-Nov-29 21:30N 48°56' W 123°43'0 0.0
2017-Nov-29 20:59N 48°56' W 123°43'0 0.0
2017-Nov-29 20:29N 48°56' W 123°43'0 0.0
2017-Nov-29 20:00N 48°56' W 123°43'2 0.1
2017-Nov-28 15:00N 48°55' W 123°40'3 3.1
2017-Nov-28 13:55N 48°52' W 123°38'0 1.0
2017-Nov-28 13:30N 48°52' W 123°38'1 2.0
2017-Nov-28 13:00N 48°53' W 123°37'3 5.5
2017-Nov-28 12:30N 48°55' W 123°40'2 0.2
2017-Nov-28 02:07N 48°56' W 123°43'1 6.5
2017-Nov-28 02:00N 48°56' W 123°42'13 8.0
2017-Nov-28 00:26N 49°06' W 123°30'4 9.7
2017-Nov-27 23:59N 49°10' W 123°26'5 9.8
2017-Nov-27 23:29N 49°13' W 123°21'4 8.4
2017-Nov-27 23:00N 49°15' W 123°16'0 0.4
2017-Nov-27 22:29N 49°15' W 123°16'1 1.3
2017-Nov-27 22:00N 49°15' W 123°16'1 1.1
2017-Nov-27 21:30N 49°16' W 123°17'  

Dump ship's entire track history